sensor_id;sensor_type;location;lat;lon;timestamp;P1;durP1;ratioP1;P2;durP2;ratioP2
11646;SDS011;5880;52.342;9.662;2023-09-19T00:00:45;1.25;;;1.05;;
11646;SDS011;5880;52.342;9.662;2023-09-19T00:03:14;1.10;;;1.00;;
11646;SDS011;5880;52.342;9.662;2023-09-19T00:05:41;3.35;;;1.02;;
11646;SDS011;5880;52.342;9.662;2023-09-19T00:08:09;1.63;;;1.15;;
11646;SDS011;5880;52.342;9.662;2023-09-19T00:10:35;1.63;;;1.25;;
11646;SDS011;5880;52.342;9.662;2023-09-19T00:13:01;1.77;;;1.20;;
11646;SDS011;5880;52.342;9.662;2023-09-19T00:15:36;2.92;;;1.25;;
11646;SDS011;5880;52.342;9.662;2023-09-19T00:18:05;2.65;;;1.35;;
11646;SDS011;5880;52.342;9.662;2023-09-19T00:20:35;1.20;;;1.02;;
11646;SDS011;5880;52.342;9.662;2023-09-19T00:23:01;1.40;;;1.30;;
11646;SDS011;5880;52.342;9.662;2023-09-19T00:25:30;0.90;;;0.90;;
11646;SDS011;5880;52.342;9.662;2023-09-19T00:27:57;2.03;;;1.20;;
11646;SDS011;5880;52.342;9.662;2023-09-19T00:30:23;2.58;;;1.30;;
11646;SDS011;5880;52.342;9.662;2023-09-19T00:32:49;1.38;;;1.27;;
11646;SDS011;5880;52.342;9.662;2023-09-19T00:35:22;2.08;;;1.60;;
11646;SDS011;5880;52.342;9.662;2023-09-19T00:37:49;2.90;;;1.80;;
11646;SDS011;5880;52.342;9.662;2023-09-19T00:40:15;1.60;;;1.50;;
11646;SDS011;5880;52.342;9.662;2023-09-19T00:42:44;1.55;;;1.45;;
11646;SDS011;5880;52.342;9.662;2023-09-19T00:45:13;2.97;;;1.83;;
11646;SDS011;5880;52.342;9.662;2023-09-19T00:47:45;2.45;;;1.73;;
11646;SDS011;5880;52.342;9.662;2023-09-19T00:50:14;3.08;;;1.80;;
11646;SDS011;5880;52.342;9.662;2023-09-19T00:52:43;2.13;;;1.55;;
11646;SDS011;5880;52.342;9.662;2023-09-19T00:55:11;2.25;;;1.70;;
11646;SDS011;5880;52.342;9.662;2023-09-19T00:57:40;1.80;;;1.70;;
11646;SDS011;5880;52.342;9.662;2023-09-19T01:00:07;2.92;;;1.67;;
11646;SDS011;5880;52.342;9.662;2023-09-19T01:02:41;3.60;;;1.60;;
11646;SDS011;5880;52.342;9.662;2023-09-19T01:05:08;2.10;;;1.67;;
11646;SDS011;5880;52.342;9.662;2023-09-19T01:07:35;3.33;;;2.10;;
11646;SDS011;5880;52.342;9.662;2023-09-19T01:10:05;1.88;;;1.65;;
11646;SDS011;5880;52.342;9.662;2023-09-19T01:24:33;2.08;;;1.80;;
11646;SDS011;5880;52.342;9.662;2023-09-19T01:30:35;3.10;;;2.20;;
11646;SDS011;5880;52.342;9.662;2023-09-19T01:33:09;2.20;;;2.00;;
11646;SDS011;5880;52.342;9.662;2023-09-19T01:35:37;3.08;;;1.92;;
11646;SDS011;5880;52.342;9.662;2023-09-19T01:38:04;2.92;;;2.28;;
11646;SDS011;5880;52.342;9.662;2023-09-19T01:40:34;2.80;;;2.20;;
11646;SDS011;5880;52.342;9.662;2023-09-19T01:43:27;2.50;;;2.30;;
11646;SDS011;5880;52.342;9.662;2023-09-19T01:48:53;3.78;;;2.55;;
11646;SDS011;5880;52.342;9.662;2023-09-19T01:54:30;2.35;;;2.15;;
11646;SDS011;5880;52.342;9.662;2023-09-19T01:57:08;2.55;;;2.33;;
11646;SDS011;5880;52.342;9.662;2023-09-19T01:59:44;2.72;;;2.22;;
11646;SDS011;5880;52.342;9.662;2023-09-19T02:02:20;2.00;;;1.90;;
11646;SDS011;5880;52.342;9.662;2023-09-19T02:04:48;2.30;;;1.92;;
11646;SDS011;5880;52.342;9.662;2023-09-19T02:07:15;3.80;;;2.47;;
11646;SDS011;5880;52.342;9.662;2023-09-19T02:09:42;3.20;;;2.47;;
11646;SDS011;5880;52.342;9.662;2023-09-19T02:12:08;4.80;;;2.17;;
11646;SDS011;5880;52.342;9.662;2023-09-19T02:14:34;2.92;;;2.47;;
11646;SDS011;5880;52.342;9.662;2023-09-19T02:17:01;3.30;;;2.47;;
11646;SDS011;5880;52.342;9.662;2023-09-19T02:19:32;2.35;;;2.08;;
11646;SDS011;5880;52.342;9.662;2023-09-19T02:21:58;2.88;;;2.20;;
11646;SDS011;5880;52.342;9.662;2023-09-19T02:24:28;3.42;;;2.58;;
11646;SDS011;5880;52.342;9.662;2023-09-19T02:26:54;2.40;;;2.20;;
11646;SDS011;5880;52.342;9.662;2023-09-19T02:29:20;3.65;;;2.45;;
11646;SDS011;5880;52.342;9.662;2023-09-19T02:31:47;2.50;;;2.30;;
11646;SDS011;5880;52.342;9.662;2023-09-19T02:34:12;3.55;;;2.45;;
11646;SDS011;5880;52.342;9.662;2023-09-19T02:36:41;2.78;;;2.47;;
11646;SDS011;5880;52.342;9.662;2023-09-19T02:39:09;2.63;;;2.40;;
11646;SDS011;5880;52.342;9.662;2023-09-19T02:41:36;3.75;;;2.40;;
11646;SDS011;5880;52.342;9.662;2023-09-19T02:44:02;3.65;;;2.65;;
11646;SDS011;5880;52.342;9.662;2023-09-19T02:46:27;3.10;;;2.58;;
11646;SDS011;5880;52.342;9.662;2023-09-19T02:48:53;2.83;;;2.63;;
11646;SDS011;5880;52.342;9.662;2023-09-19T02:51:19;4.32;;;2.92;;
11646;SDS011;5880;52.342;9.662;2023-09-19T02:53:45;3.05;;;2.75;;
11646;SDS011;5880;52.342;9.662;2023-09-19T02:56:12;3.72;;;3.08;;
11646;SDS011;5880;52.342;9.662;2023-09-19T02:58:38;4.10;;;2.35;;
11646;SDS011;5880;52.342;9.662;2023-09-19T03:01:10;4.93;;;2.42;;
11646;SDS011;5880;52.342;9.662;2023-09-19T03:03:39;3.83;;;2.50;;
11646;SDS011;5880;52.342;9.662;2023-09-19T03:06:05;2.95;;;2.55;;
11646;SDS011;5880;52.342;9.662;2023-09-19T03:08:34;3.35;;;2.65;;
11646;SDS011;5880;52.342;9.662;2023-09-19T03:11:04;4.45;;;2.47;;
11646;SDS011;5880;52.342;9.662;2023-09-19T03:13:31;2.70;;;2.28;;
11646;SDS011;5880;52.342;9.662;2023-09-19T03:15:57;3.20;;;2.40;;
11646;SDS011;5880;52.342;9.662;2023-09-19T03:18:23;3.67;;;2.50;;
11646;SDS011;5880;52.342;9.662;2023-09-19T03:20:54;3.63;;;2.35;;
11646;SDS011;5880;52.342;9.662;2023-09-19T03:23:21;2.67;;;2.47;;
11646;SDS011;5880;52.342;9.662;2023-09-19T03:25:48;3.97;;;2.20;;
11646;SDS011;5880;52.342;9.662;2023-09-19T03:28:13;3.00;;;2.05;;
11646;SDS011;5880;52.342;9.662;2023-09-19T03:30:40;2.70;;;2.00;;
11646;SDS011;5880;52.342;9.662;2023-09-19T03:33:07;2.35;;;1.70;;
11646;SDS011;5880;52.342;9.662;2023-09-19T03:35:33;2.30;;;2.08;;
11646;SDS011;5880;52.342;9.662;2023-09-19T03:37:59;2.50;;;2.10;;
11646;SDS011;5880;52.342;9.662;2023-09-19T03:40:25;3.80;;;1.88;;
11646;SDS011;5880;52.342;9.662;2023-09-19T03:42:51;2.13;;;1.67;;
11646;SDS011;5880;52.342;9.662;2023-09-19T03:45:16;2.10;;;1.77;;
11646;SDS011;5880;52.342;9.662;2023-09-19T03:47:43;3.03;;;1.92;;
11646;SDS011;5880;52.342;9.662;2023-09-19T03:50:09;3.05;;;1.90;;
11646;SDS011;5880;52.342;9.662;2023-09-19T03:52:40;3.35;;;2.20;;
11646;SDS011;5880;52.342;9.662;2023-09-19T03:55:06;3.85;;;2.10;;
11646;SDS011;5880;52.342;9.662;2023-09-19T03:57:32;2.78;;;2.00;;
11646;SDS011;5880;52.342;9.662;2023-09-19T03:59:59;2.08;;;1.70;;
11646;SDS011;5880;52.342;9.662;2023-09-19T04:02:25;3.97;;;1.88;;
11646;SDS011;5880;52.342;9.662;2023-09-19T04:04:51;3.00;;;1.80;;
11646;SDS011;5880;52.342;9.662;2023-09-19T04:07:17;3.38;;;2.10;;
11646;SDS011;5880;52.342;9.662;2023-09-19T04:09:47;2.42;;;1.80;;
11646;SDS011;5880;52.342;9.662;2023-09-19T04:12:14;3.05;;;2.20;;
11646;SDS011;5880;52.342;9.662;2023-09-19T04:14:42;3.95;;;2.00;;
11646;SDS011;5880;52.342;9.662;2023-09-19T04:17:08;3.13;;;2.10;;
11646;SDS011;5880;52.342;9.662;2023-09-19T04:19:35;2.28;;;2.08;;
11646;SDS011;5880;52.342;9.662;2023-09-19T04:22:01;2.38;;;1.77;;
11646;SDS011;5880;52.342;9.662;2023-09-19T04:24:26;4.07;;;2.13;;
11646;SDS011;5880;52.342;9.662;2023-09-19T04:26:52;3.65;;;2.22;;
11646;SDS011;5880;52.342;9.662;2023-09-19T04:29:18;2.28;;;1.90;;
11646;SDS011;5880;52.342;9.662;2023-09-19T04:31:44;2.63;;;1.88;;
11646;SDS011;5880;52.342;9.662;2023-09-19T04:34:11;3.55;;;2.10;;
11646;SDS011;5880;52.342;9.662;2023-09-19T04:36:40;2.63;;;2.13;;
11646;SDS011;5880;52.342;9.662;2023-09-19T04:39:06;6.35;;;2.17;;
11646;SDS011;5880;52.342;9.662;2023-09-19T04:41:33;3.08;;;2.25;;
11646;SDS011;5880;52.342;9.662;2023-09-19T04:43:59;3.00;;;2.20;;
11646;SDS011;5880;52.342;9.662;2023-09-19T04:46:25;3.75;;;2.45;;
11646;SDS011;5880;52.342;9.662;2023-09-19T04:48:51;2.63;;;2.25;;
11646;SDS011;5880;52.342;9.662;2023-09-19T04:51:16;4.00;;;2.58;;
11646;SDS011;5880;52.342;9.662;2023-09-19T04:53:43;4.07;;;2.30;;
11646;SDS011;5880;52.342;9.662;2023-09-19T04:56:09;4.85;;;3.05;;
11646;SDS011;5880;52.342;9.662;2023-09-19T04:58:35;4.65;;;2.97;;
11646;SDS011;5880;52.342;9.662;2023-09-19T05:01:00;4.15;;;2.90;;
11646;SDS011;5880;52.342;9.662;2023-09-19T05:03:27;3.78;;;3.20;;
11646;SDS011;5880;52.342;9.662;2023-09-19T05:05:52;3.97;;;3.08;;
11646;SDS011;5880;52.342;9.662;2023-09-19T05:08:18;3.28;;;2.95;;
11646;SDS011;5880;52.342;9.662;2023-09-19T05:10:44;4.18;;;3.13;;
11646;SDS011;5880;52.342;9.662;2023-09-19T05:13:10;4.55;;;3.30;;
11646;SDS011;5880;52.342;9.662;2023-09-19T05:15:37;3.65;;;3.17;;
11646;SDS011;5880;52.342;9.662;2023-09-19T05:18:02;6.25;;;3.25;;
11646;SDS011;5880;52.342;9.662;2023-09-19T05:20:28;4.43;;;3.30;;
11646;SDS011;5880;52.342;9.662;2023-09-19T05:23:04;3.80;;;3.28;;
11646;SDS011;5880;52.342;9.662;2023-09-19T05:25:36;3.50;;;3.17;;
11646;SDS011;5880;52.342;9.662;2023-09-19T05:28:08;3.42;;;3.10;;
11646;SDS011;5880;52.342;9.662;2023-09-19T05:30:37;4.82;;;3.35;;
11646;SDS011;5880;52.342;9.662;2023-09-19T05:33:03;6.25;;;3.60;;
11646;SDS011;5880;52.342;9.662;2023-09-19T05:35:30;4.50;;;3.42;;
11646;SDS011;5880;52.342;9.662;2023-09-19T05:37:56;4.95;;;3.50;;
11646;SDS011;5880;52.342;9.662;2023-09-19T05:40:23;4.70;;;3.70;;
11646;SDS011;5880;52.342;9.662;2023-09-19T05:42:50;4.60;;;3.60;;
11646;SDS011;5880;52.342;9.662;2023-09-19T05:45:16;6.53;;;3.40;;
11646;SDS011;5880;52.342;9.662;2023-09-19T05:47:50;6.63;;;3.83;;
11646;SDS011;5880;52.342;9.662;2023-09-19T05:50:20;5.43;;;3.22;;
11646;SDS011;5880;52.342;9.662;2023-09-19T05:52:52;5.55;;;3.35;;
11646;SDS011;5880;52.342;9.662;2023-09-19T05:55:20;4.38;;;3.28;;
11646;SDS011;5880;52.342;9.662;2023-09-19T05:57:50;4.70;;;3.47;;
11646;SDS011;5880;52.342;9.662;2023-09-19T06:00:18;4.78;;;3.15;;
11646;SDS011;5880;52.342;9.662;2023-09-19T06:02:51;3.33;;;2.85;;
11646;SDS011;5880;52.342;9.662;2023-09-19T06:05:22;3.70;;;3.30;;
11646;SDS011;5880;52.342;9.662;2023-09-19T06:07:52;5.32;;;2.80;;
11646;SDS011;5880;52.342;9.662;2023-09-19T06:10:19;3.92;;;3.17;;
11646;SDS011;5880;52.342;9.662;2023-09-19T06:12:48;4.78;;;3.28;;
11646;SDS011;5880;52.342;9.662;2023-09-19T06:15:14;5.10;;;3.35;;
11646;SDS011;5880;52.342;9.662;2023-09-19T06:17:47;4.78;;;3.30;;
11646;SDS011;5880;52.342;9.662;2023-09-19T06:20:13;3.83;;;3.38;;
11646;SDS011;5880;52.342;9.662;2023-09-19T06:22:41;5.32;;;3.38;;
11646;SDS011;5880;52.342;9.662;2023-09-19T06:25:08;4.22;;;2.97;;
11646;SDS011;5880;52.342;9.662;2023-09-19T06:27:37;4.97;;;3.33;;
11646;SDS011;5880;52.342;9.662;2023-09-19T06:30:08;5.13;;;3.33;;
11646;SDS011;5880;52.342;9.662;2023-09-19T06:32:36;3.58;;;3.15;;
11646;SDS011;5880;52.342;9.662;2023-09-19T06:35:02;2.97;;;2.70;;
11646;SDS011;5880;52.342;9.662;2023-09-19T06:37:28;3.78;;;2.97;;
11646;SDS011;5880;52.342;9.662;2023-09-19T06:39:54;6.15;;;3.00;;
11646;SDS011;5880;52.342;9.662;2023-09-19T06:42:21;5.22;;;3.20;;
11646;SDS011;5880;52.342;9.662;2023-09-19T06:44:48;5.18;;;2.90;;
11646;SDS011;5880;52.342;9.662;2023-09-19T06:47:14;4.13;;;2.67;;
11646;SDS011;5880;52.342;9.662;2023-09-19T06:49:41;4.60;;;2.92;;
11646;SDS011;5880;52.342;9.662;2023-09-19T06:52:09;3.42;;;2.50;;
11646;SDS011;5880;52.342;9.662;2023-09-19T06:54:35;3.95;;;2.63;;
11646;SDS011;5880;52.342;9.662;2023-09-19T06:57:01;2.95;;;2.17;;
11646;SDS011;5880;52.342;9.662;2023-09-19T06:59:27;3.17;;;1.90;;
11646;SDS011;5880;52.342;9.662;2023-09-19T07:01:52;4.20;;;2.00;;
11646;SDS011;5880;52.342;9.662;2023-09-19T07:04:18;3.78;;;1.83;;
11646;SDS011;5880;52.342;9.662;2023-09-19T07:06:49;3.15;;;1.85;;
11646;SDS011;5880;52.342;9.662;2023-09-19T07:09:15;2.35;;;1.55;;
11646;SDS011;5880;52.342;9.662;2023-09-19T07:11:42;4.72;;;2.05;;
11646;SDS011;5880;52.342;9.662;2023-09-19T07:14:08;3.53;;;1.75;;
11646;SDS011;5880;52.342;9.662;2023-09-19T07:16:36;3.15;;;1.80;;
11646;SDS011;5880;52.342;9.662;2023-09-19T07:19:04;3.72;;;1.50;;
11646;SDS011;5880;52.342;9.662;2023-09-19T07:21:30;3.55;;;1.67;;
11646;SDS011;5880;52.342;9.662;2023-09-19T07:23:59;3.08;;;1.63;;
11646;SDS011;5880;52.342;9.662;2023-09-19T07:26:29;3.95;;;1.70;;
11646;SDS011;5880;52.342;9.662;2023-09-19T07:28:55;2.65;;;1.42;;
11646;SDS011;5880;52.342;9.662;2023-09-19T07:31:22;3.40;;;1.50;;
11646;SDS011;5880;52.342;9.662;2023-09-19T07:33:48;2.28;;;1.25;;
11646;SDS011;5880;52.342;9.662;2023-09-19T07:36:14;3.03;;;1.60;;
11646;SDS011;5880;52.342;9.662;2023-09-19T07:38:41;2.63;;;1.48;;
11646;SDS011;5880;52.342;9.662;2023-09-19T07:41:07;2.30;;;1.17;;
11646;SDS011;5880;52.342;9.662;2023-09-19T07:43:34;2.88;;;1.20;;
11646;SDS011;5880;52.342;9.662;2023-09-19T07:46:02;2.88;;;1.42;;
11646;SDS011;5880;52.342;9.662;2023-09-19T07:48:32;3.40;;;1.50;;
11646;SDS011;5880;52.342;9.662;2023-09-19T07:51:04;3.63;;;1.33;;
11646;SDS011;5880;52.342;9.662;2023-09-19T07:53:32;2.63;;;1.50;;
11646;SDS011;5880;52.342;9.662;2023-09-19T07:56:06;2.35;;;1.40;;
11646;SDS011;5880;52.342;9.662;2023-09-19T07:58:34;2.40;;;1.25;;
11646;SDS011;5880;52.342;9.662;2023-09-19T08:01:05;3.42;;;1.73;;
11646;SDS011;5880;52.342;9.662;2023-09-19T08:03:33;3.20;;;1.30;;
11646;SDS011;5880;52.342;9.662;2023-09-19T08:06:00;2.50;;;1.50;;
11646;SDS011;5880;52.342;9.662;2023-09-19T08:08:26;3.83;;;1.80;;
11646;SDS011;5880;52.342;9.662;2023-09-19T08:10:55;2.47;;;1.40;;
11646;SDS011;5880;52.342;9.662;2023-09-19T08:13:25;4.10;;;1.60;;
11646;SDS011;5880;52.342;9.662;2023-09-19T08:15:51;2.50;;;1.50;;
11646;SDS011;5880;52.342;9.662;2023-09-19T08:18:20;3.15;;;1.50;;
11646;SDS011;5880;52.342;9.662;2023-09-19T08:20:49;4.47;;;1.73;;
11646;SDS011;5880;52.342;9.662;2023-09-19T08:23:17;3.00;;;1.40;;
11646;SDS011;5880;52.342;9.662;2023-09-19T08:25:45;3.85;;;1.50;;
11646;SDS011;5880;52.342;9.662;2023-09-19T08:28:11;2.97;;;1.38;;
11646;SDS011;5880;52.342;9.662;2023-09-19T08:30:39;7.43;;;1.45;;
11646;SDS011;5880;52.342;9.662;2023-09-19T08:33:06;3.17;;;1.23;;
11646;SDS011;5880;52.342;9.662;2023-09-19T08:35:32;4.07;;;1.40;;
11646;SDS011;5880;52.342;9.662;2023-09-19T08:37:58;3.17;;;1.40;;
11646;SDS011;5880;52.342;9.662;2023-09-19T08:40:29;2.78;;;1.50;;
11646;SDS011;5880;52.342;9.662;2023-09-19T08:42:58;3.40;;;1.58;;
11646;SDS011;5880;52.342;9.662;2023-09-19T08:45:24;2.13;;;1.33;;
11646;SDS011;5880;52.342;9.662;2023-09-19T08:53:50;3.38;;;1.27;;
11646;SDS011;5880;52.342;9.662;2023-09-19T08:56:47;3.70;;;1.40;;
11646;SDS011;5880;52.342;9.662;2023-09-19T08:59:15;3.03;;;1.70;;
11646;SDS011;5880;52.342;9.662;2023-09-19T09:01:43;2.20;;;1.23;;
11646;SDS011;5880;52.342;9.662;2023-09-19T09:04:11;2.80;;;1.45;;
11646;SDS011;5880;52.342;9.662;2023-09-19T09:06:38;2.38;;;1.50;;
11646;SDS011;5880;52.342;9.662;2023-09-19T09:09:05;2.75;;;1.30;;
11646;SDS011;5880;52.342;9.662;2023-09-19T09:11:32;3.00;;;1.40;;
11646;SDS011;5880;52.342;9.662;2023-09-19T09:13:58;3.95;;;1.55;;
11646;SDS011;5880;52.342;9.662;2023-09-19T09:16:24;3.63;;;1.65;;
11646;SDS011;5880;52.342;9.662;2023-09-19T09:18:51;3.13;;;1.52;;
11646;SDS011;5880;52.342;9.662;2023-09-19T09:21:21;2.85;;;1.42;;
11646;SDS011;5880;52.342;9.662;2023-09-19T09:23:49;3.55;;;1.48;;
11646;SDS011;5880;52.342;9.662;2023-09-19T09:26:16;3.30;;;1.52;;
11646;SDS011;5880;52.342;9.662;2023-09-19T09:28:45;3.00;;;1.50;;
11646;SDS011;5880;52.342;9.662;2023-09-19T09:31:22;3.38;;;1.45;;
11646;SDS011;5880;52.342;9.662;2023-09-19T09:33:55;3.47;;;1.35;;
11646;SDS011;5880;52.342;9.662;2023-09-19T09:36:33;2.38;;;1.50;;
11646;SDS011;5880;52.342;9.662;2023-09-19T09:39:01;2.65;;;1.52;;
11646;SDS011;5880;52.342;9.662;2023-09-19T09:41:40;3.15;;;1.42;;
11646;SDS011;5880;52.342;9.662;2023-09-19T09:44:15;2.92;;;1.50;;
11646;SDS011;5880;52.342;9.662;2023-09-19T09:46:45;4.15;;;1.58;;
11646;SDS011;5880;52.342;9.662;2023-09-19T09:49:25;2.78;;;1.58;;
11646;SDS011;5880;52.342;9.662;2023-09-19T09:52:06;2.30;;;1.30;;
11646;SDS011;5880;52.342;9.662;2023-09-19T09:54:41;3.55;;;1.92;;
11646;SDS011;5880;52.342;9.662;2023-09-19T09:57:32;2.53;;;1.40;;
11646;SDS011;5880;52.342;9.662;2023-09-19T09:59:59;2.97;;;1.52;;
11646;SDS011;5880;52.342;9.662;2023-09-19T10:02:38;3.85;;;1.63;;
11646;SDS011;5880;52.342;9.662;2023-09-19T10:07:45;2.13;;;1.38;;
11646;SDS011;5880;52.342;9.662;2023-09-19T10:10:14;2.78;;;1.50;;
11646;SDS011;5880;52.342;9.662;2023-09-19T10:13:07;2.78;;;1.30;;
11646;SDS011;5880;52.342;9.662;2023-09-19T10:15:41;3.33;;;1.73;;
11646;SDS011;5880;52.342;9.662;2023-09-19T10:18:14;3.45;;;1.52;;
11646;SDS011;5880;52.342;9.662;2023-09-19T10:20:46;3.33;;;1.75;;
11646;SDS011;5880;52.342;9.662;2023-09-19T10:23:13;2.05;;;1.45;;
11646;SDS011;5880;52.342;9.662;2023-09-19T10:25:47;3.10;;;1.50;;
11646;SDS011;5880;52.342;9.662;2023-09-19T10:28:15;2.95;;;1.58;;
11646;SDS011;5880;52.342;9.662;2023-09-19T10:30:46;3.15;;;1.60;;
11646;SDS011;5880;52.342;9.662;2023-09-19T10:33:16;3.85;;;1.63;;
11646;SDS011;5880;52.342;9.662;2023-09-19T10:35:47;2.70;;;1.60;;
11646;SDS011;5880;52.342;9.662;2023-09-19T10:38:19;3.25;;;1.83;;
11646;SDS011;5880;52.342;9.662;2023-09-19T10:40:50;3.35;;;1.88;;
11646;SDS011;5880;52.342;9.662;2023-09-19T10:43:18;2.90;;;1.58;;
11646;SDS011;5880;52.342;9.662;2023-09-19T10:45:46;3.45;;;1.52;;
11646;SDS011;5880;52.342;9.662;2023-09-19T10:48:15;2.50;;;1.60;;
11646;SDS011;5880;52.342;9.662;2023-09-19T10:53:43;3.67;;;1.65;;
11646;SDS011;5880;52.342;9.662;2023-09-19T10:56:27;5.00;;;1.80;;
11646;SDS011;5880;52.342;9.662;2023-09-19T10:59:12;3.10;;;1.58;;
11646;SDS011;5880;52.342;9.662;2023-09-19T11:01:49;3.63;;;1.42;;
11646;SDS011;5880;52.342;9.662;2023-09-19T11:04:32;2.95;;;1.70;;
11646;SDS011;5880;52.342;9.662;2023-09-19T11:12:12;2.65;;;1.40;;
11646;SDS011;5880;52.342;9.662;2023-09-19T11:15:02;5.20;;;1.60;;
11646;SDS011;5880;52.342;9.662;2023-09-19T11:25:59;3.08;;;1.63;;
11646;SDS011;5880;52.342;9.662;2023-09-19T11:30:37;3.75;;;1.60;;
11646;SDS011;5880;52.342;9.662;2023-09-19T11:43:46;3.05;;;1.58;;
11646;SDS011;5880;52.342;9.662;2023-09-19T11:46:26;3.88;;;1.48;;
11646;SDS011;5880;52.342;9.662;2023-09-19T11:48:53;2.20;;;1.38;;
11646;SDS011;5880;52.342;9.662;2023-09-19T11:51:21;3.85;;;2.00;;
11646;SDS011;5880;52.342;9.662;2023-09-19T11:53:52;2.65;;;1.50;;
11646;SDS011;5880;52.342;9.662;2023-09-19T11:56:21;2.00;;;1.40;;
11646;SDS011;5880;52.342;9.662;2023-09-19T11:58:51;5.60;;;2.00;;
11646;SDS011;5880;52.342;9.662;2023-09-19T12:03:57;3.30;;;1.80;;
11646;SDS011;5880;52.342;9.662;2023-09-19T12:06:26;2.88;;;1.70;;
11646;SDS011;5880;52.342;9.662;2023-09-19T12:08:54;3.10;;;1.45;;
11646;SDS011;5880;52.342;9.662;2023-09-19T12:11:22;3.25;;;1.50;;
11646;SDS011;5880;52.342;9.662;2023-09-19T12:13:52;3.42;;;1.45;;
11646;SDS011;5880;52.342;9.662;2023-09-19T12:16:21;4.88;;;1.98;;
11646;SDS011;5880;52.342;9.662;2023-09-19T12:18:47;3.72;;;1.80;;
11646;SDS011;5880;52.342;9.662;2023-09-19T12:21:52;3.13;;;1.55;;
11646;SDS011;5880;52.342;9.662;2023-09-19T12:24:11;4.00;;;1.60;;
11646;SDS011;5880;52.342;9.662;2023-09-19T12:26:45;2.45;;;1.52;;
11646;SDS011;5880;52.342;9.662;2023-09-19T12:29:20;3.03;;;1.60;;
11646;SDS011;5880;52.342;9.662;2023-09-19T12:34:19;5.18;;;1.52;;
11646;SDS011;5880;52.342;9.662;2023-09-19T12:36:47;1.83;;;1.30;;
11646;SDS011;5880;52.342;9.662;2023-09-19T12:39:26;3.85;;;1.80;;
11646;SDS011;5880;52.342;9.662;2023-09-19T12:41:52;4.22;;;1.63;;
11646;SDS011;5880;52.342;9.662;2023-09-19T12:44:20;5.22;;;1.90;;
11646;SDS011;5880;52.342;9.662;2023-09-19T12:46:46;2.92;;;1.60;;
11646;SDS011;5880;52.342;9.662;2023-09-19T12:49:15;3.67;;;1.80;;
11646;SDS011;5880;52.342;9.662;2023-09-19T12:51:43;2.42;;;1.65;;
11646;SDS011;5880;52.342;9.662;2023-09-19T12:54:11;4.32;;;1.80;;
11646;SDS011;5880;52.342;9.662;2023-09-19T12:56:39;2.55;;;1.60;;
11646;SDS011;5880;52.342;9.662;2023-09-19T12:59:12;3.75;;;2.03;;
11646;SDS011;5880;52.342;9.662;2023-09-19T13:01:40;3.90;;;1.77;;
11646;SDS011;5880;52.342;9.662;2023-09-19T13:04:17;3.20;;;1.70;;
11646;SDS011;5880;52.342;9.662;2023-09-19T13:06:59;2.35;;;1.67;;
11646;SDS011;5880;52.342;9.662;2023-09-19T13:09:26;3.65;;;1.90;;
11646;SDS011;5880;52.342;9.662;2023-09-19T13:12:03;3.00;;;1.55;;
11646;SDS011;5880;52.342;9.662;2023-09-19T13:15:06;2.45;;;1.60;;
11646;SDS011;5880;52.342;9.662;2023-09-19T13:17:45;3.83;;;2.10;;
11646;SDS011;5880;52.342;9.662;2023-09-19T13:20:22;4.88;;;1.83;;
11646;SDS011;5880;52.342;9.662;2023-09-19T13:22:57;5.25;;;1.80;;
11646;SDS011;5880;52.342;9.662;2023-09-19T13:25:25;3.42;;;1.80;;
11646;SDS011;5880;52.342;9.662;2023-09-19T13:27:55;3.47;;;1.70;;
11646;SDS011;5880;52.342;9.662;2023-09-19T13:30:28;3.65;;;1.77;;
11646;SDS011;5880;52.342;9.662;2023-09-19T13:33:09;4.35;;;1.42;;
11646;SDS011;5880;52.342;9.662;2023-09-19T13:35:36;3.25;;;1.70;;
11646;SDS011;5880;52.342;9.662;2023-09-19T13:38:05;2.72;;;1.60;;
11646;SDS011;5880;52.342;9.662;2023-09-19T13:40:34;3.30;;;1.90;;
11646;SDS011;5880;52.342;9.662;2023-09-19T13:43:00;3.30;;;1.80;;
11646;SDS011;5880;52.342;9.662;2023-09-19T13:45:26;2.90;;;1.88;;
11646;SDS011;5880;52.342;9.662;2023-09-19T13:47:55;2.67;;;1.50;;
11646;SDS011;5880;52.342;9.662;2023-09-19T13:50:21;2.53;;;1.30;;
11646;SDS011;5880;52.342;9.662;2023-09-19T13:52:49;3.20;;;1.60;;
11646;SDS011;5880;52.342;9.662;2023-09-19T13:55:18;3.97;;;1.40;;
11646;SDS011;5880;52.342;9.662;2023-09-19T13:57:48;4.43;;;1.70;;
11646;SDS011;5880;52.342;9.662;2023-09-19T14:00:21;3.08;;;1.88;;
11646;SDS011;5880;52.342;9.662;2023-09-19T14:02:48;2.83;;;1.45;;
11646;SDS011;5880;52.342;9.662;2023-09-19T14:05:14;2.60;;;1.50;;
11646;SDS011;5880;52.342;9.662;2023-09-19T14:07:44;3.65;;;2.00;;
11646;SDS011;5880;52.342;9.662;2023-09-19T14:10:13;3.28;;;1.80;;
11646;SDS011;5880;52.342;9.662;2023-09-19T14:12:39;6.15;;;1.83;;
11646;SDS011;5880;52.342;9.662;2023-09-19T14:15:09;4.18;;;1.70;;
11646;SDS011;5880;52.342;9.662;2023-09-19T14:17:36;2.90;;;1.55;;
11646;SDS011;5880;52.342;9.662;2023-09-19T14:20:03;2.47;;;1.50;;
11646;SDS011;5880;52.342;9.662;2023-09-19T14:22:31;5.50;;;1.80;;
11646;SDS011;5880;52.342;9.662;2023-09-19T14:24:58;2.47;;;1.40;;
11646;SDS011;5880;52.342;9.662;2023-09-19T14:27:24;2.90;;;1.67;;
11646;SDS011;5880;52.342;9.662;2023-09-19T14:29:50;2.92;;;1.30;;
11646;SDS011;5880;52.342;9.662;2023-09-19T14:32:16;2.65;;;1.60;;
11646;SDS011;5880;52.342;9.662;2023-09-19T14:34:42;2.85;;;1.50;;
11646;SDS011;5880;52.342;9.662;2023-09-19T14:37:09;2.40;;;1.35;;
11646;SDS011;5880;52.342;9.662;2023-09-19T14:39:36;2.53;;;1.38;;
11646;SDS011;5880;52.342;9.662;2023-09-19T14:42:05;1.60;;;1.50;;
11646;SDS011;5880;52.342;9.662;2023-09-19T14:44:30;3.05;;;1.67;;
11646;SDS011;5880;52.342;9.662;2023-09-19T14:46:56;1.83;;;1.30;;
11646;SDS011;5880;52.342;9.662;2023-09-19T14:49:22;1.98;;;1.40;;
11646;SDS011;5880;52.342;9.662;2023-09-19T14:51:47;3.53;;;1.75;;
11646;SDS011;5880;52.342;9.662;2023-09-19T14:54:13;3.08;;;1.75;;
11646;SDS011;5880;52.342;9.662;2023-09-19T14:56:41;4.43;;;1.63;;
11646;SDS011;5880;52.342;9.662;2023-09-19T14:59:08;2.50;;;1.30;;
11646;SDS011;5880;52.342;9.662;2023-09-19T15:01:35;3.92;;;1.65;;
11646;SDS011;5880;52.342;9.662;2023-09-19T15:04:01;2.97;;;1.60;;
11646;SDS011;5880;52.342;9.662;2023-09-19T15:06:27;2.55;;;1.40;;
11646;SDS011;5880;52.342;9.662;2023-09-19T15:08:53;2.05;;;1.40;;
11646;SDS011;5880;52.342;9.662;2023-09-19T15:11:19;3.15;;;1.42;;
11646;SDS011;5880;52.342;9.662;2023-09-19T15:13:47;1.95;;;1.30;;
11646;SDS011;5880;52.342;9.662;2023-09-19T15:16:15;2.47;;;1.50;;
11646;SDS011;5880;52.342;9.662;2023-09-19T15:18:41;2.22;;;1.30;;
11646;SDS011;5880;52.342;9.662;2023-09-19T15:21:10;3.08;;;1.52;;
11646;SDS011;5880;52.342;9.662;2023-09-19T15:23:37;2.70;;;1.45;;
11646;SDS011;5880;52.342;9.662;2023-09-19T15:26:05;1.60;;;1.10;;
11646;SDS011;5880;52.342;9.662;2023-09-19T15:28:33;1.90;;;1.25;;
11646;SDS011;5880;52.342;9.662;2023-09-19T15:31:03;2.55;;;1.50;;
11646;SDS011;5880;52.342;9.662;2023-09-19T15:33:31;2.20;;;1.33;;
11646;SDS011;5880;52.342;9.662;2023-09-19T15:41:27;1.90;;;1.27;;
11646;SDS011;5880;52.342;9.662;2023-09-19T15:44:02;2.50;;;1.50;;
11646;SDS011;5880;52.342;9.662;2023-09-19T15:46:32;3.42;;;1.13;;
11646;SDS011;5880;52.342;9.662;2023-09-19T15:49:00;4.32;;;1.30;;
11646;SDS011;5880;52.342;9.662;2023-09-19T15:51:26;2.45;;;1.55;;
11646;SDS011;5880;52.342;9.662;2023-09-19T15:53:53;1.80;;;1.33;;
11646;SDS011;5880;52.342;9.662;2023-09-19T15:56:21;1.90;;;1.40;;
11646;SDS011;5880;52.342;9.662;2023-09-19T15:58:52;2.10;;;1.50;;
11646;SDS011;5880;52.342;9.662;2023-09-19T16:01:20;2.28;;;1.20;;
11646;SDS011;5880;52.342;9.662;2023-09-19T16:03:48;2.40;;;1.42;;
11646;SDS011;5880;52.342;9.662;2023-09-19T16:06:20;2.28;;;1.40;;
11646;SDS011;5880;52.342;9.662;2023-09-19T16:08:52;3.38;;;1.33;;
11646;SDS011;5880;52.342;9.662;2023-09-19T16:11:23;2.50;;;1.30;;
11646;SDS011;5880;52.342;9.662;2023-09-19T16:13:51;2.15;;;1.30;;
11646;SDS011;5880;52.342;9.662;2023-09-19T16:16:18;1.98;;;1.38;;
11646;SDS011;5880;52.342;9.662;2023-09-19T16:18:48;1.25;;;1.02;;
11646;SDS011;5880;52.342;9.662;2023-09-19T16:21:23;2.47;;;1.40;;